createdAt,value
2022-09-26T00:00:37.949Z,57054.09
2022-09-26T00:01:42.882Z,57399.69
2022-09-26T00:02:45.247Z,59360.97
2022-09-26T00:03:50.868Z,58729.50
2022-09-26T00:04:53.579Z,60345.66
2022-09-26T00:06:03.391Z,57746.41
2022-09-26T00:07:05.549Z,61676.16
2022-09-26T00:08:07.832Z,64962.59
2022-09-26T00:09:10.316Z,62667.34
2022-09-26T00:10:12.550Z,65304.47
2022-09-26T00:11:26.813Z,63684.09
2022-09-26T00:12:28.922Z,64660.94
2022-09-26T00:13:32.742Z,64672.22
2022-09-26T00:14:34.970Z,69943.78
2022-09-26T00:15:37.139Z,62665.38
2022-09-26T00:16:39.806Z,61011.03
2022-09-26T00:17:42.015Z,56077.50
2022-09-26T00:18:48.439Z,56096.06
2022-09-26T00:19:50.606Z,58724.88
2022-09-26T00:20:52.932Z,62018.63
2022-09-26T00:21:55.248Z,61033.25
2022-09-26T00:22:57.402Z,63680.56
2022-09-26T00:24:00.995Z,63037.13
2022-09-26T00:25:03.600Z,65976.00
2022-09-26T00:26:06.230Z,63024.13
2022-09-26T00:27:08.367Z,63347.06
2022-09-26T00:28:10.448Z,63010.13
2022-09-26T00:29:13.788Z,60042.28
2022-09-26T00:30:16.080Z,59055.34
2022-09-26T00:31:29.549Z,56786.22
2022-09-26T00:32:31.922Z,64331.94
2022-09-26T00:33:34.222Z,64013.13
2022-09-26T00:34:36.542Z,59361.44
2022-09-26T00:35:38.779Z,56085.03
2022-09-26T00:36:40.916Z,59073.06
2022-09-26T00:37:44.250Z,63037.13
2022-09-26T00:38:46.701Z,63360.13
2022-09-26T00:39:49.006Z,60384.34
2022-09-26T00:40:52.180Z,62712.06
2022-09-26T00:41:54.735Z,59716.91
2022-09-26T00:42:58.154Z,57428.69
2022-09-26T00:44:00.579Z,60389.13
2022-09-26T00:45:04.202Z,58404.09
2022-09-26T00:46:32.009Z,58117.69
2022-09-26T00:47:59.481Z,62095.78
2022-09-26T00:49:13.560Z,69325.94
2022-09-26T00:50:21.773Z,67706.00
2022-09-26T00:51:23.955Z,64352.34
2022-09-26T00:52:41.279Z,57117.16
2022-09-26T00:53:47.279Z,57452.25
2022-09-26T00:54:53.293Z,57765.56
2022-09-26T00:56:06.197Z,56466.84
2022-09-26T00:57:12.291Z,52827.53
2022-09-26T00:58:50.106Z,53830.63
2022-09-26T01:00:01.417Z,53169.31
2022-09-26T01:01:03.702Z,54120.84
2022-09-26T01:02:06.211Z,52471.50
2022-09-26T01:03:08.475Z,49845.16
2022-09-26T01:04:12.437Z,51172.84
2022-09-26T01:05:17.023Z,47882.66
2022-09-26T01:06:20.079Z,46229.09
2022-09-26T01:07:24.866Z,44933.69
2022-09-26T01:08:33.196Z,45919.56
2022-09-26T01:09:36.983Z,47218.94
2022-09-26T01:10:39.273Z,46871.97
2022-09-26T01:11:43.663Z,40000.00
2022-09-26T01:12:45.908Z,45562.81
2022-09-26T01:13:50.947Z,42629.66
2022-09-26T01:14:54.996Z,42630.31
2022-09-26T01:15:57.256Z,46565.31
2022-09-26T01:16:59.856Z,47217.47
2022-09-26T01:18:02.946Z,47881.53
2022-09-26T01:19:22.573Z,46261.25
2022-09-26T01:20:43.464Z,51174.47
2022-09-26T01:22:24.481Z,51529.41
2022-09-26T01:24:03.383Z,57822.16
2022-09-26T01:25:33.357Z,60131.63
2022-09-26T01:26:37.948Z,60740.06
2022-09-26T01:27:58.740Z,55447.03
2022-09-26T01:29:18.886Z,52213.00
2022-09-26T01:30:28.663Z,56495.38
2022-09-26T01:31:30.801Z,60755.91
2022-09-26T01:33:02.758Z,55507.81
2022-09-26T01:34:22.424Z,56493.16
2022-09-26T01:35:27.327Z,60419.69
2022-09-26T01:36:56.332Z,52867.44
2022-09-26T01:38:37.863Z,57150.53
2022-09-26T01:39:58.198Z,52549.50
2022-09-26T01:41:14.647Z,51208.59
2022-09-26T01:42:41.066Z,50561.59
2022-09-26T01:44:04.917Z,48245.03
2022-09-26T01:45:19.766Z,48559.63
2022-09-26T01:46:36.636Z,45586.28
2022-09-26T01:47:50.631Z,44965.56
2022-09-26T01:48:59.078Z,50232.69
2022-09-26T01:50:19.401Z,53208.66
2022-09-26T01:51:28.421Z,51548.84
2022-09-26T01:52:52.981Z,53198.63
2022-09-26T01:53:59.382Z,55479.81
2022-09-26T01:55:10.368Z,51220.28
2022-09-26T01:56:14.620Z,53536.59
2022-09-26T01:57:23.473Z,54844.94
2022-09-26T01:58:35.600Z,53196.09
2022-09-26T01:59:45.302Z,53200.28
2022-09-26T02:00:49.544Z,51874.16
2022-09-26T02:02:06.682Z,47923.88
2022-09-26T02:03:19.862Z,47268.41
2022-09-26T02:04:28.826Z,50893.31
2022-09-26T02:05:50.821Z,53868.75
2022-09-26T02:06:59.847Z,57156.84
2022-09-26T02:08:41.850Z,59155.31
2022-09-26T02:09:53.550Z,59477.94
2022-09-26T02:11:02.115Z,59472.78
2022-09-26T02:12:08.519Z,59135.69
2022-09-26T02:13:26.853Z,57161.38
2022-09-26T02:14:35.326Z,53532.78
2022-09-26T02:15:38.612Z,58471.97
2022-09-26T02:16:48.300Z,58485.81
2022-09-26T02:17:56.595Z,58489.03
2022-09-26T02:19:15.914Z,62129.75
2022-09-26T02:20:18.138Z,63749.75
2022-09-26T02:21:23.457Z,61779.78
2022-09-26T02:22:29.489Z,60797.75
2022-09-26T02:23:31.795Z,63731.59
2022-09-26T02:24:34.060Z,60101.66
2022-09-26T02:25:37.556Z,59773.09
2022-09-26T02:26:42.235Z,58128.25
2022-09-26T02:27:44.463Z,62096.28
2022-09-26T02:28:47.403Z,62434.94
2022-09-26T02:29:52.055Z,64745.13
2022-09-26T02:30:54.856Z,65749.22
2022-09-26T02:32:03.395Z,61448.56
2022-09-26T02:33:05.653Z,61756.78
2022-09-26T02:34:09.361Z,61764.13
2022-09-26T02:35:30.869Z,62431.97
2022-09-26T02:36:34.560Z,59790.13
2022-09-26T02:37:38.751Z,61431.03
2022-09-26T02:38:41.068Z,61427.63
2022-09-26T02:40:15.475Z,63414.88
2022-09-26T02:41:29.571Z,61784.19
2022-09-26T02:42:44.010Z,58807.97
2022-09-26T02:44:04.148Z,57500.78
2022-09-26T02:45:25.902Z,57164.97
2022-09-26T02:47:05.991Z,60136.84
2022-09-26T02:48:22.646Z,61766.06
2022-09-26T02:49:38.781Z,56167.78
2022-09-26T02:50:50.194Z,57143.75
2022-09-26T02:52:16.083Z,57161.81
2022-09-26T02:53:27.128Z,53516.78
2022-09-26T02:54:49.874Z,54852.28
2022-09-26T02:56:04.774Z,57778.31
2022-09-26T02:57:12.757Z,53520.56
2022-09-26T02:58:35.921Z,56499.81
2022-09-26T02:59:57.758Z,61468.00
2022-09-26T03:01:19.099Z,57152.34
2022-09-26T03:02:29.947Z,58807.03
2022-09-26T03:03:59.867Z,57489.47
2022-09-26T03:05:17.808Z,57477.66
2022-09-26T03:06:26.657Z,62117.94
2022-09-26T03:07:43.325Z,62455.22
2022-09-26T03:08:48.981Z,62431.47
2022-09-26T03:09:53.084Z,61761.19
2022-09-26T03:10:59.754Z,63433.00
2022-09-26T03:12:05.313Z,63418.91
2022-09-26T03:13:11.847Z,64096.44
2022-09-26T03:14:16.783Z,62426.03
2022-09-26T03:15:20.405Z,63098.09
2022-09-26T03:16:27.706Z,66085.09
2022-09-26T03:17:31.372Z,69720.34
2022-09-26T03:18:41.939Z,70063.03
2022-09-26T03:19:49.993Z,71336.81
2022-09-26T03:20:54.174Z,68701.88
2022-09-26T03:21:56.940Z,72008.47
2022-09-26T03:22:59.529Z,69709.81
2022-09-26T03:24:02.835Z,75334.41
2022-09-26T03:25:07.328Z,74355.91
2022-09-26T03:26:17.167Z,74696.19
2022-09-26T03:27:28.114Z,79662.16
2022-09-26T03:28:37.599Z,85616.78
2022-09-26T03:29:40.589Z,75316.38
2022-09-26T03:30:48.685Z,76333.47
2022-09-26T03:32:01.565Z,78297.66
2022-09-26T03:33:03.989Z,69029.34
2022-09-26T03:34:06.417Z,71330.59
2022-09-26T03:35:09.980Z,68358.63
2022-09-26T03:36:12.162Z,66049.44
2022-09-26T03:37:15.271Z,68366.81
2022-09-26T03:38:17.459Z,68367.88
2022-09-26T03:39:25.321Z,71033.66
2022-09-26T03:40:36.433Z,73987.94
2022-09-26T03:42:10.830Z,78332.13
2022-09-26T03:43:14.337Z,80981.75
2022-09-26T03:44:17.322Z,84624.44
2022-09-26T03:45:45.302Z,83605.38
2022-09-26T03:46:54.650Z,68362.44
2022-09-26T03:47:57.835Z,72029.13
2022-09-26T03:49:00.614Z,73681.50
2022-09-26T03:50:02.928Z,79657.09
2022-09-26T03:51:10.722Z,82012.91
2022-09-26T03:52:13.573Z,83648.28
2022-09-26T03:53:17.505Z,85987.63
2022-09-26T03:54:19.754Z,89304.13
2022-09-26T03:55:23.273Z,88979.41
2022-09-26T03:56:26.967Z,85626.41
2022-09-26T03:57:29.124Z,87652.66
2022-09-26T03:58:38.159Z,93613.13
2022-09-26T03:59:40.486Z,78980.31
2022-09-26T04:00:42.630Z,83658.34
2022-09-26T04:01:45.010Z,91647.84
2022-09-26T04:02:48.338Z,90629.00
2022-09-26T04:04:15.230Z,86632.28
2022-09-26T04:05:17.949Z,86303.41
2022-09-26T04:06:21.140Z,85983.47
2022-09-26T04:07:24.909Z,85949.00
2022-09-26T04:08:27.043Z,82310.75
2022-09-26T04:09:29.255Z,85972.47
2022-09-26T04:10:31.403Z,82616.25
2022-09-26T04:11:33.509Z,73017.94
2022-09-26T04:12:35.851Z,73680.94
2022-09-26T04:13:54.543Z,78674.47
2022-09-26T04:15:02.392Z,77981.09
2022-09-26T04:16:08.376Z,71369.22
2022-09-26T04:17:10.607Z,70029.56
2022-09-26T04:18:16.733Z,71687.75
2022-09-26T04:19:19.160Z,75694.78
2022-09-26T04:20:21.286Z,82312.09
2022-09-26T04:21:26.942Z,77036.41
2022-09-26T04:22:29.151Z,69341.38
2022-09-26T04:23:33.776Z,64744.59
2022-09-26T04:24:36.499Z,68377.13
2022-09-26T04:25:38.879Z,66734.84
2022-09-26T04:26:43.296Z,69068.91
2022-09-26T04:27:45.420Z,66390.47
2022-09-26T04:28:51.002Z,71041.59
2022-09-26T04:29:54.573Z,74019.25
2022-09-26T04:31:13.101Z,70722.34
2022-09-26T04:32:22.436Z,72026.25
2022-09-26T04:33:43.216Z,70738.66
2022-09-26T04:34:45.373Z,69393.25
2022-09-26T04:35:47.487Z,64733.81
2022-09-26T04:36:51.211Z,62768.25
2022-09-26T04:37:53.419Z,59473.25
2022-09-26T04:38:58.311Z,61110.59
2022-09-26T04:40:00.567Z,53521.41
2022-09-26T04:41:11.203Z,52234.31
2022-09-26T04:42:13.634Z,59156.69
2022-09-26T04:43:16.228Z,62778.19
2022-09-26T04:44:18.408Z,57495.81
2022-09-26T04:45:20.680Z,60815.06
2022-09-26T04:46:30.391Z,53540.38
2022-09-26T04:47:33.634Z,48579.38
2022-09-26T04:49:03.372Z,44958.91
2022-09-26T04:50:06.398Z,36415.50
2022-09-26T04:51:11.527Z,33146.31
2022-09-26T04:52:13.881Z,37083.59
2022-09-26T04:53:18.011Z,38063.59
2022-09-26T04:54:38.463Z,36748.63
2022-09-26T04:55:45.950Z,30858.81
2022-09-26T04:56:48.884Z,30840.06
2022-09-26T04:57:51.842Z,27892.44
2022-09-26T04:58:56.639Z,27906.75
2022-09-26T05:00:01.725Z,28883.28
2022-09-26T05:01:08.499Z,26595.59
2022-09-26T05:02:43.655Z,29539.38
2022-09-26T05:03:46.364Z,30516.72
2022-09-26T05:04:49.719Z,31172.81
2022-09-26T05:05:53.085Z,29861.47
2022-09-26T05:06:55.812Z,30512.78
2022-09-26T05:08:02.627Z,28222.28
2022-09-26T05:09:05.988Z,25929.97
2022-09-26T05:10:24.008Z,25272.59
2022-09-26T05:11:32.975Z,24616.28
2022-09-26T05:12:35.316Z,23309.00
2022-09-26T05:13:38.813Z,20375.69
2022-09-26T05:14:42.054Z,23641.78
2022-09-26T05:15:44.165Z,27240.03
2022-09-26T05:16:47.394Z,22667.84
2022-09-26T05:17:59.851Z,24967.97
2022-09-26T05:19:04.436Z,28222.91
2022-09-26T05:20:09.961Z,22338.75
2022-09-26T05:21:21.450Z,21029.72
2022-09-26T05:22:23.717Z,21688.06
2022-09-26T05:23:45.400Z,22341.88
2022-09-26T05:25:07.315Z,21023.25
2022-09-26T05:26:31.066Z,13851.72
2022-09-26T05:27:33.321Z,16453.03
2022-09-26T05:28:35.533Z,11885.16
2022-09-26T05:29:37.998Z,9606.78
2022-09-26T05:30:43.426Z,10584.38
2022-09-26T05:31:46.659Z,13521.09
2022-09-26T05:32:49.360Z,15155.88
2022-09-26T05:33:52.947Z,20054.28
2022-09-26T05:34:55.936Z,19395.91
2022-09-26T05:35:59.364Z,18096.34
2022-09-26T05:37:05.304Z,21367.47
2022-09-26T05:38:08.234Z,23979.06
2022-09-26T05:39:33.375Z,22675.19
2022-09-26T05:40:54.160Z,22993.78
2022-09-26T05:41:58.789Z,18418.47
2022-09-26T05:43:02.185Z,13523.63
2022-09-26T05:44:04.518Z,8957.53
2022-09-26T05:45:09.580Z,8960.13
2022-09-26T05:46:12.045Z,11241.53
2022-09-26T05:47:21.854Z,11566.22
2022-09-26T05:48:25.572Z,7004.25
2022-09-26T05:49:27.846Z,6678.00
2022-09-26T05:50:30.345Z,6354.47
2022-09-26T05:51:33.462Z,6028.63
2022-09-26T05:52:39.244Z,5053.31
2022-09-26T05:53:43.901Z,4401.69
2022-09-26T05:54:48.528Z,4401.16
2022-09-26T05:56:19.340Z,7004.16
2022-09-26T05:57:55.061Z,6681.00
2022-09-26T05:59:00.061Z,7984.47
2022-09-26T06:00:20.754Z,11896.91
2022-09-26T06:01:22.914Z,11243.16
2022-09-26T06:02:32.078Z,10265.72
2022-09-26T06:03:47.166Z,9288.50
2022-09-26T06:04:58.055Z,10264.72
2022-09-26T06:06:20.811Z,8308.97
2022-09-26T06:07:29.167Z,8634.66
2022-09-26T06:08:32.681Z,6681.41
2022-09-26T06:10:00.885Z,7981.03
2022-09-26T06:11:15.565Z,6356.16
2022-09-26T06:12:19.564Z,7983.13
2022-09-26T06:13:21.779Z,7656.84
2022-09-26T06:14:26.449Z,6679.84
2022-09-26T06:15:32.661Z,6355.38
2022-09-26T06:16:35.020Z,7004.41
2022-09-26T06:17:37.269Z,6028.19
2022-09-26T06:18:41.919Z,6354.03
2022-09-26T06:19:44.573Z,5378.00
2022-09-26T06:20:47.065Z,7330.38
2022-09-26T06:21:49.348Z,7007.25
2022-09-26T06:22:55.925Z,9288.25
2022-09-26T06:23:58.127Z,10918.97
2022-09-26T06:26:43.992Z,12873.59
2022-09-26T06:27:46.445Z,13521.38
2022-09-26T06:28:51.589Z,9286.88
2022-09-26T06:29:53.747Z,11898.19
2022-09-26T06:30:56.829Z,12222.09
2022-09-26T06:32:19.184Z,12548.09
2022-09-26T06:33:33.609Z,15816.16
2022-09-26T06:34:54.343Z,15162.56
2022-09-26T06:36:15.209Z,18753.31
2022-09-26T06:37:17.394Z,18750.34
2022-09-26T06:38:19.557Z,15810.03
2022-09-26T06:39:21.972Z,17115.97
2022-09-26T06:40:24.697Z,16142.75
2022-09-26T06:41:27.455Z,19081.31
2022-09-26T06:42:37.981Z,19088.22
2022-09-26T06:43:53.632Z,23004.66
2022-09-26T06:45:25.507Z,25300.38
2022-09-26T06:46:46.053Z,21698.44
2022-09-26T06:47:50.903Z,22343.53
2022-09-26T06:49:06.814Z,20387.28
2022-09-26T06:50:36.147Z,23666.00
2022-09-26T06:51:38.422Z,27272.63
2022-09-26T06:52:40.988Z,28583.25
2022-09-26T06:53:45.753Z,28912.78
2022-09-26T06:54:52.607Z,30213.28
2022-09-26T06:55:55.153Z,30548.97
2022-09-26T06:56:57.280Z,31208.63
2022-09-26T06:57:59.810Z,31864.94
2022-09-26T06:59:04.758Z,36471.84
2022-09-26T07:00:11.711Z,38781.44
2022-09-26T07:01:37.209Z,44376.31
2022-09-26T07:03:05.705Z,41074.09
2022-09-26T07:04:37.235Z,43383.44
2022-09-26T07:05:54.657Z,48668.41
2022-09-26T07:06:59.580Z,46704.38
2022-09-26T07:08:02.843Z,56262.53
2022-09-26T07:09:11.266Z,57256.53
2022-09-26T07:10:22.036Z,56921.13
2022-09-26T07:11:50.514Z,61556.56
2022-09-26T07:13:01.216Z,56622.38
2022-09-26T07:14:03.446Z,62245.38
2022-09-26T07:15:06.636Z,68559.91
2022-09-26T07:16:08.884Z,74824.34
2022-09-26T07:17:33.967Z,81152.28
2022-09-26T07:18:39.650Z,85816.03
2022-09-26T07:19:55.332Z,82844.72
2022-09-26T07:21:20.093Z,97538.69
2022-09-26T07:22:45.463Z,99256.81
2022-09-26T07:23:47.969Z,100229.63
2022-09-26T07:24:53.915Z,112577.38
2022-09-26T07:25:56.657Z,118339.88
2022-09-26T07:26:58.934Z,121368.38
2022-09-26T07:28:01.753Z,121775.63
2022-09-26T07:29:24.093Z,141617.78
2022-09-26T07:30:28.220Z,124444.72
2022-09-26T07:31:39.232Z,149164.34
2022-09-26T07:32:44.222Z,149172.88
2022-09-26T07:33:56.517Z,149237.31
2022-09-26T07:35:04.619Z,149289.56
2022-09-26T07:36:07.129Z,149199.59
2022-09-26T07:37:09.372Z,149255.53
2022-09-26T07:38:13.104Z,149265.22
2022-09-26T07:39:15.738Z,149170.47
2022-09-26T07:40:20.775Z,149154.63
2022-09-26T07:41:23.310Z,149090.19
2022-09-26T07:42:25.741Z,149097.50
2022-09-26T07:43:54.781Z,149051.31
2022-09-26T07:45:21.845Z,149039.19
2022-09-26T07:46:31.883Z,149051.31
2022-09-26T07:47:53.632Z,149008.78
2022-09-26T07:49:32.946Z,149024.56
2022-09-26T07:50:35.463Z,148961.41
2022-09-26T07:51:56.564Z,148966.25
2022-09-26T07:53:04.566Z,148883.66
2022-09-26T07:54:06.987Z,148895.81
2022-09-26T07:55:27.839Z,148871.50
2022-09-26T07:56:35.774Z,148888.53
2022-09-26T07:57:56.384Z,148813.19
2022-09-26T07:59:28.104Z,148751.28
2022-09-26T08:00:33.457Z,148842.41
2022-09-26T08:01:48.996Z,148849.66
2022-09-26T08:03:11.513Z,148898.22
2022-09-26T08:04:15.260Z,148866.66
2022-09-26T08:05:20.237Z,148909.19
2022-09-26T08:06:23.926Z,148881.25
2022-09-26T08:07:26.288Z,148871.50
2022-09-26T08:08:37.029Z,148917.69
2022-09-26T08:10:08.581Z,148997.84
2022-09-26T08:11:29.169Z,148893.38
2022-09-26T08:12:57.039Z,148852.09
2022-09-26T08:14:16.282Z,148853.31
2022-09-26T08:15:41.490Z,148843.59
2022-09-26T08:16:47.639Z,148793.75
2022-09-26T08:17:50.404Z,148848.47
2022-09-26T08:18:54.099Z,148898.22
2022-09-26T08:19:56.783Z,148828.97
2022-09-26T08:20:58.990Z,148832.59
2022-09-26T08:22:01.887Z,148837.50
2022-09-26T08:23:04.951Z,148776.78
2022-09-26T08:24:07.230Z,148826.53
2022-09-26T08:25:18.336Z,148814.41
2022-09-26T08:26:44.106Z,135278.59
2022-09-26T08:27:53.156Z,147985.94
2022-09-26T08:28:55.545Z,148776.78
2022-09-26T08:29:57.734Z,147879.56
2022-09-26T08:31:00.723Z,146069.38
2022-09-26T08:32:03.373Z,148060.13
2022-09-26T08:33:11.479Z,148769.47
2022-09-26T08:34:14.305Z,148335.03
2022-09-26T08:35:18.553Z,148854.53
2022-09-26T08:36:29.305Z,148929.81
2022-09-26T08:37:46.933Z,148825.31
2022-09-26T08:39:12.266Z,144431.00
2022-09-26T08:40:32.359Z,141164.91
2022-09-26T08:42:25.926Z,148935.88
2022-09-26T08:44:25.025Z,145665.16
2022-09-26T08:46:10.931Z,148932.22
2022-09-26T08:47:53.134Z,147310.56
2022-09-26T08:49:23.278Z,148928.59
2022-09-26T08:50:39.015Z,141191.34
2022-09-26T08:51:46.164Z,148978.41
2022-09-26T08:52:58.791Z,148909.19
2022-09-26T08:54:09.195Z,148856.94
2022-09-26T08:55:35.083Z,148980.84
2022-09-26T08:56:44.173Z,148942.00
2022-09-26T08:57:55.247Z,149018.50
2022-09-26T08:58:59.873Z,149000.25
2022-09-26T09:00:27.127Z,149082.91
2022-09-26T09:01:44.674Z,148945.63
2022-09-26T09:03:23.043Z,148977.22
2022-09-26T09:04:44.375Z,148985.69
2022-09-26T09:05:52.098Z,149020.94
2022-09-26T09:07:18.389Z,149012.44
2022-09-26T09:08:33.285Z,134753.03
2022-09-26T09:10:17.628Z,148845.00
2022-09-26T09:11:50.370Z,148690.75
2022-09-26T09:13:31.551Z,148908.00
2022-09-26T09:15:25.743Z,148853.31
2022-09-26T09:17:18.247Z,120579.78
2022-09-26T09:19:05.148Z,104174.03
2022-09-26T09:20:43.498Z,95106.28
2022-09-26T09:22:47.527Z,88832.59
2022-09-26T09:24:10.626Z,94474.06
2022-09-26T09:25:23.239Z,98142.25
2022-09-26T09:28:18.281Z,95463.69
2022-09-26T09:29:38.895Z,105191.28
2022-09-26T09:31:08.167Z,104876.94
2022-09-26T09:32:44.451Z,100180.38
2022-09-26T09:34:09.905Z,87153.81
2022-09-26T09:35:40.247Z,91520.56
2022-09-26T09:36:55.588Z,94191.84
2022-09-26T09:37:58.506Z,87776.47
2022-09-26T09:39:29.867Z,76482.25
2022-09-26T09:40:52.879Z,73199.66
2022-09-26T09:42:03.485Z,82831.47
2022-09-26T09:43:26.628Z,73536.38
2022-09-26T09:44:52.773Z,89162.34
2022-09-26T09:46:02.778Z,75174.31
2022-09-26T09:47:16.279Z,77507.84
2022-09-26T09:48:18.837Z,66518.09
2022-09-26T09:49:23.281Z,62593.75
2022-09-26T09:50:39.827Z,65942.41
2022-09-26T09:52:39.088Z,71558.03
2022-09-26T09:53:55.350Z,62941.38
2022-09-26T09:55:21.038Z,65937.19
2022-09-26T09:57:03.075Z,69561.13
2022-09-26T09:58:20.611Z,64557.78
2022-09-26T09:59:48.230Z,63561.75
2022-09-26T10:01:11.230Z,59262.81
2022-09-26T10:02:19.866Z,53941.63
2022-09-26T10:03:45.221Z,51999.69
2022-09-26T10:05:02.197Z,50023.56
2022-09-26T10:06:05.024Z,52648.63
2022-09-26T10:07:12.424Z,55263.25
2022-09-26T10:08:22.468Z,52980.09
2022-09-26T10:09:46.322Z,60523.47
2022-09-26T10:11:30.819Z,52672.59
2022-09-26T10:12:35.050Z,53640.19
2022-09-26T10:14:03.275Z,54646.63
2022-09-26T10:15:27.254Z,59931.53
2022-09-26T10:17:09.175Z,55974.47
2022-09-26T10:18:25.384Z,53970.50
2022-09-26T10:19:40.120Z,45388.41
2022-09-26T10:20:53.951Z,41119.94
2022-09-26T10:21:57.333Z,48024.78
2022-09-26T10:22:59.564Z,54305.50
2022-09-26T10:24:04.860Z,49346.44
2022-09-26T10:25:24.159Z,44085.03
2022-09-26T10:26:34.826Z,47704.66
2022-09-26T10:27:47.989Z,42436.16
2022-09-26T10:28:55.648Z,48345.88
2022-09-26T10:29:59.633Z,48688.97
2022-09-26T10:31:10.579Z,45417.03
2022-09-26T10:32:48.589Z,52696.97
2022-09-26T10:34:28.016Z,54341.38
2022-09-26T10:35:42.207Z,51727.03
2022-09-26T10:36:44.335Z,62952.81
2022-09-26T10:38:09.168Z,66617.88
2022-09-26T10:39:35.651Z,69963.47
2022-09-26T10:40:48.232Z,83563.25
2022-09-26T10:41:58.568Z,87630.03
2022-09-26T10:43:30.428Z,88943.75
2022-09-26T10:44:38.680Z,113011.25
2022-09-26T10:45:40.772Z,107998.22
2022-09-26T10:47:25.047Z,133230.25
2022-09-26T10:48:55.290Z,125177.81
2022-09-26T10:50:16.556Z,122533.84
2022-09-26T10:51:46.940Z,118768.09
2022-09-26T10:53:08.898Z,127918.81
2022-09-26T10:54:17.139Z,125061.19
2022-09-26T10:55:39.510Z,97927.91
2022-09-26T10:56:54.163Z,94252.38
2022-09-26T10:58:07.863Z,102266.25
2022-09-26T10:59:16.340Z,100273.19
2022-09-26T11:00:40.108Z,88931.66
2022-09-26T11:01:56.481Z,98269.41
2022-09-26T11:02:59.147Z,97886.19
2022-09-26T11:04:36.148Z,76543.28
2022-09-26T11:05:59.054Z,77523.91
2022-09-26T11:07:06.037Z,71915.19
2022-09-26T11:08:14.132Z,73862.56
2022-09-26T11:09:36.231Z,67921.41
2022-09-26T11:11:04.735Z,75539.56
2022-09-26T11:12:26.132Z,64904.44
2022-09-26T11:13:39.276Z,63252.16
2022-09-26T11:14:45.841Z,59582.31
2022-09-26T11:15:59.369Z,59579.03
2022-09-26T11:17:03.284Z,43384.78
2022-09-26T11:18:06.688Z,43403.69
2022-09-26T11:19:19.792Z,44727.56
2022-09-26T11:20:51.260Z,37820.97
2022-09-26T11:22:08.351Z,40440.03
2022-09-26T11:23:22.436Z,38128.22
2022-09-26T11:27:26.731Z,32208.50
2022-09-26T11:33:20.894Z,16482.09
2022-09-26T11:34:34.207Z,14519.56
2022-09-26T11:35:44.210Z,11583.03
2022-09-26T11:37:04.199Z,7665.75
2022-09-26T11:38:06.309Z,9941.44
2022-09-26T11:39:46.581Z,1798.66
2022-09-26T11:41:00.889Z,5711.31
2022-09-26T11:42:36.295Z,10606.94
2022-09-26T11:44:00.414Z,11914.00
2022-09-26T11:46:08.996Z,9301.47
2022-09-26T11:48:01.293Z,7668.91
2022-09-26T11:50:10.899Z,6037.25
2022-09-26T11:52:01.321Z,7339.91
2022-09-26T11:53:13.070Z,1473.03
2022-09-26T11:54:32.413Z,2775.81
2022-09-26T11:55:57.675Z,1798.88
2022-09-26T11:57:38.602Z,169.78
2022-09-26T11:59:02.510Z,495.97
2022-09-26T12:00:24.222Z,1147.19
2022-09-26T12:01:57.483Z,1473.09
2022-09-26T12:03:05.524Z,-154.88
2022-09-26T12:04:12.017Z,-1780.06
2022-09-26T12:05:27.023Z,-5035.84
2022-09-26T12:06:36.504Z,-15415.03
2022-09-26T12:07:48.542Z,-8282.16
2022-09-26T12:09:03.379Z,-6006.75
2022-09-26T12:10:17.706Z,-6657.06
2022-09-26T12:11:25.776Z,-7631.53
2022-09-26T12:12:35.943Z,-7310.34
2022-09-26T12:13:53.887Z,-6333.78
2022-09-26T12:15:15.133Z,-6660.94
2022-09-26T12:16:22.435Z,-4061.53
2022-09-26T12:17:43.111Z,-3410.81
2022-09-26T12:19:10.413Z,-1783.19
2022-09-26T12:20:43.013Z,-2761.78
2022-09-26T12:22:12.865Z,-1129.13
2022-09-26T12:23:36.587Z,-2433.34
2022-09-26T12:24:48.468Z,-3409.56
2022-09-26T12:25:59.196Z,-3086.84
2022-09-26T12:27:36.017Z,-2435.72
2022-09-26T12:29:09.891Z,-1133.28
2022-09-26T12:30:37.622Z,1472.78
2022-09-26T12:32:16.746Z,-482.72
2022-09-26T12:33:40.388Z,-1132.72
2022-09-26T12:35:01.143Z,-2757.41
2022-09-26T12:36:12.620Z,-3731.19
2022-09-26T12:37:53.250Z,-5688.84
2022-09-26T12:39:22.000Z,-4061.59
2022-09-26T12:41:02.404Z,-4387.00
2022-09-26T12:42:17.054Z,-4383.59
2022-09-26T12:43:42.047Z,-7313.50
2022-09-26T12:44:54.948Z,-3408.00
2022-09-26T12:46:18.504Z,-5039.97
2022-09-26T12:47:25.919Z,-3410.50
2022-09-26T12:48:56.191Z,-5036.94
2022-09-26T12:50:17.793Z,-5361.41
2022-09-26T12:51:45.043Z,-4712.78
2022-09-26T12:53:22.316Z,-4706.53
2022-09-26T12:54:44.178Z,-6335.50
2022-09-26T12:55:57.839Z,-6335.09
2022-09-26T12:57:32.813Z,-6338.88
2022-09-26T12:58:52.351Z,-5687.56
2022-09-26T13:00:09.628Z,-6013.25
2022-09-26T13:01:58.508Z,-6662.66
2022-09-26T13:03:27.708Z,-6986.22
2022-09-26T13:04:52.420Z,-6338.94
2022-09-26T13:06:23.170Z,-5038.47
2022-09-26T13:07:34.331Z,-5689.03
2022-09-26T13:08:58.462Z,-6339.63
2022-09-26T13:10:09.917Z,-8615.56
2022-09-26T13:11:22.132Z,-6657.00
2022-09-26T13:12:46.498Z,-7965.59
2022-09-26T13:14:19.466Z,-7315.19
2022-09-26T13:15:28.982Z,-6664.72
2022-09-26T13:16:43.428Z,-6661.50
2022-09-26T13:17:52.213Z,-8282.25
2022-09-26T13:19:10.694Z,-10228.94
2022-09-26T13:20:19.590Z,-10875.47
2022-09-26T13:21:29.086Z,-11845.06
2022-09-26T13:22:58.519Z,-12507.34
2022-09-26T13:24:13.807Z,-12496.66
2022-09-26T13:25:21.769Z,-13470.81
2022-09-26T13:26:28.917Z,-13473.97
2022-09-26T13:27:38.322Z,-11204.25
2022-09-26T13:29:15.717Z,-11851.88
2022-09-26T13:30:21.043Z,-10553.28
2022-09-26T13:31:32.550Z,-12177.22
2022-09-26T13:32:53.196Z,-13153.13
2022-09-26T13:34:04.128Z,-13154.13
2022-09-26T13:35:35.821Z,-11531.88
2022-09-26T13:36:41.851Z,-10874.00
2022-09-26T13:38:14.345Z,-13148.66
2022-09-26T13:40:17.899Z,-13471.31
2022-09-26T13:41:38.450Z,-15097.69
2022-09-26T13:42:53.119Z,-15423.03
2022-09-26T13:44:06.768Z,-13805.50
2022-09-26T13:45:19.245Z,-13151.28
2022-09-26T13:46:43.027Z,-13156.22
2022-09-26T13:47:52.205Z,-12818.00
2022-09-26T13:49:18.320Z,-15090.13
2022-09-26T13:50:25.997Z,-15742.13
2022-09-26T13:51:49.416Z,-16385.59
2022-09-26T13:52:58.025Z,-16067.53
2022-09-26T13:54:29.535Z,-16716.25
2022-09-26T13:55:31.685Z,-14760.25
2022-09-26T13:56:34.045Z,-14766.03
2022-09-26T13:57:47.087Z,-15101.03
2022-09-26T13:59:11.076Z,-14455.66
2022-09-26T14:00:25.931Z,-13480.81
2022-09-26T14:01:28.278Z,-12497.59
2022-09-26T14:02:31.951Z,-13149.41
2022-09-26T14:03:37.881Z,-12177.69
2022-09-26T14:04:40.103Z,-11846.63
2022-09-26T14:05:42.180Z,-13145.31
2022-09-26T14:07:29.504Z,-15745.03
2022-09-26T14:08:50.983Z,-13153.88
2022-09-26T14:10:03.279Z,-13473.47
2022-09-26T14:11:14.765Z,-13789.47
2022-09-26T14:12:20.835Z,-15096.84
2022-09-26T14:13:36.366Z,-14455.13
2022-09-26T14:14:44.184Z,-11529.66
2022-09-26T14:15:49.473Z,-13157.22
2022-09-26T14:16:59.438Z,-12509.72
2022-09-26T14:18:22.170Z,-11859.38
2022-09-26T14:19:39.295Z,-10557.00
2022-09-26T14:21:12.513Z,-13155.88
2022-09-26T14:22:18.880Z,-12823.59
2022-09-26T14:23:35.821Z,-14124.91
2022-09-26T14:24:41.331Z,-15093.47
2022-09-26T14:25:46.238Z,-15097.13
2022-09-26T14:26:56.982Z,-14449.59
2022-09-26T14:28:12.465Z,-14447.84